sensor_id;sensor_type;location;lat;lon;timestamp;temperature;humidity
65989;HTU21D;53592;51.402;6.054;2023-04-06T00:00:51;5.37;66.14
65989;HTU21D;53592;51.402;6.054;2023-04-06T00:03:18;5.32;65.85
65989;HTU21D;53592;51.402;6.054;2023-04-06T00:05:44;5.30;66.05
65989;HTU21D;53592;51.402;6.054;2023-04-06T00:08:10;5.28;66.17
65989;HTU21D;53592;51.402;6.054;2023-04-06T00:10:35;5.20;66.72
65989;HTU21D;53592;51.402;6.054;2023-04-06T00:13:01;5.11;67.29
65989;HTU21D;53592;51.402;6.054;2023-04-06T00:15:27;5.09;67.55
65989;HTU21D;53592;51.402;6.054;2023-04-06T00:17:52;5.04;68.17
65989;HTU21D;53592;51.402;6.054;2023-04-06T00:20:18;4.97;68.71
65989;HTU21D;53592;51.402;6.054;2023-04-06T00:22:44;4.93;69.06
65989;HTU21D;53592;51.402;6.054;2023-04-06T00:25:10;4.88;69.40
65989;HTU21D;53592;51.402;6.054;2023-04-06T00:27:37;4.83;69.30
65989;HTU21D;53592;51.402;6.054;2023-04-06T00:30:04;4.83;69.04
65989;HTU21D;53592;51.402;6.054;2023-04-06T00:32:30;4.90;68.54
65989;HTU21D;53592;51.402;6.054;2023-04-06T00:34:56;4.87;68.17
65989;HTU21D;53592;51.402;6.054;2023-04-06T00:37:21;4.82;68.51
65989;HTU21D;53592;51.402;6.054;2023-04-06T00:39:47;4.75;68.77
65989;HTU21D;53592;51.402;6.054;2023-04-06T00:42:13;4.73;68.68
65989;HTU21D;53592;51.402;6.054;2023-04-06T00:44:41;4.74;68.75
65989;HTU21D;53592;51.402;6.054;2023-04-06T00:47:07;4.73;68.52
65989;HTU21D;53592;51.402;6.054;2023-04-06T00:49:34;4.72;68.55
65989;HTU21D;53592;51.402;6.054;2023-04-06T00:52:00;4.72;68.51
65989;HTU21D;53592;51.402;6.054;2023-04-06T00:54:28;4.69;68.55
65989;HTU21D;53592;51.402;6.054;2023-04-06T00:56:53;4.67;68.14
65989;HTU21D;53592;51.402;6.054;2023-04-06T00:59:19;4.63;68.01
65989;HTU21D;53592;51.402;6.054;2023-04-06T01:01:45;4.61;67.79
65989;HTU21D;53592;51.402;6.054;2023-04-06T01:04:10;4.57;67.77
65989;HTU21D;53592;51.402;6.054;2023-04-06T01:06:36;4.54;67.78
65989;HTU21D;53592;51.402;6.054;2023-04-06T01:09:01;4.47;68.03
65989;HTU21D;53592;51.402;6.054;2023-04-06T01:11:27;4.45;68.38
65989;HTU21D;53592;51.402;6.054;2023-04-06T01:13:52;4.42;68.55
65989;HTU21D;53592;51.402;6.054;2023-04-06T01:16:18;4.36;68.81
65989;HTU21D;53592;51.402;6.054;2023-04-06T01:18:44;4.35;69.00
65989;HTU21D;53592;51.402;6.054;2023-04-06T01:21:10;4.37;68.93
65989;HTU21D;53592;51.402;6.054;2023-04-06T01:23:43;4.39;69.01
65989;HTU21D;53592;51.402;6.054;2023-04-06T01:26:09;4.38;69.26
65989;HTU21D;53592;51.402;6.054;2023-04-06T01:28:35;4.37;69.46
65989;HTU21D;53592;51.402;6.054;2023-04-06T01:31:02;4.35;69.71
65989;HTU21D;53592;51.402;6.054;2023-04-06T01:33:28;4.34;69.55
65989;HTU21D;53592;51.402;6.054;2023-04-06T01:35:53;4.33;69.80
65989;HTU21D;53592;51.402;6.054;2023-04-06T01:38:19;4.31;70.09
65989;HTU21D;53592;51.402;6.054;2023-04-06T01:40:44;4.33;69.99
65989;HTU21D;53592;51.402;6.054;2023-04-06T01:43:10;4.38;69.55
65989;HTU21D;53592;51.402;6.054;2023-04-06T01:45:35;4.42;69.00
65989;HTU21D;53592;51.402;6.054;2023-04-06T01:48:01;4.44;68.50
65989;HTU21D;53592;51.402;6.054;2023-04-06T01:50:26;4.43;68.42
65989;HTU21D;53592;51.402;6.054;2023-04-06T01:52:52;4.43;68.64
65989;HTU21D;53592;51.402;6.054;2023-04-06T01:55:17;4.32;69.04
65989;HTU21D;53592;51.402;6.054;2023-04-06T01:57:42;4.18;69.94
65989;HTU21D;53592;51.402;6.054;2023-04-06T02:00:08;4.12;70.59
65989;HTU21D;53592;51.402;6.054;2023-04-06T02:02:34;4.09;71.23
65989;HTU21D;53592;51.402;6.054;2023-04-06T02:05:00;4.05;71.64
65989;HTU21D;53592;51.402;6.054;2023-04-06T02:07:25;4.07;71.72
65989;HTU21D;53592;51.402;6.054;2023-04-06T02:09:54;4.04;71.90
65989;HTU21D;53592;51.402;6.054;2023-04-06T02:12:21;4.04;71.73
65989;HTU21D;53592;51.402;6.054;2023-04-06T02:14:46;4.04;71.53
65989;HTU21D;53592;51.402;6.054;2023-04-06T02:17:12;3.98;71.87
65989;HTU21D;53592;51.402;6.054;2023-04-06T02:19:37;3.92;72.26
65989;HTU21D;53592;51.402;6.054;2023-04-06T02:22:02;3.87;72.45
65989;HTU21D;53592;51.402;6.054;2023-04-06T02:24:28;3.85;72.39
65989;HTU21D;53592;51.402;6.054;2023-04-06T02:26:54;3.85;72.22
65989;HTU21D;53592;51.402;6.054;2023-04-06T02:29:19;3.83;72.18
65989;HTU21D;53592;51.402;6.054;2023-04-06T02:31:45;3.82;71.65
65989;HTU21D;53592;51.402;6.054;2023-04-06T02:34:11;3.80;71.32
65989;HTU21D;53592;51.402;6.054;2023-04-06T02:36:43;3.80;71.07
65989;HTU21D;53592;51.402;6.054;2023-04-06T02:39:09;3.73;71.10
65989;HTU21D;53592;51.402;6.054;2023-04-06T02:41:35;3.73;71.25
65989;HTU21D;53592;51.402;6.054;2023-04-06T02:44:01;3.74;71.40
65989;HTU21D;53592;51.402;6.054;2023-04-06T02:46:26;3.77;71.55
65989;HTU21D;53592;51.402;6.054;2023-04-06T02:48:52;3.70;71.69
65989;HTU21D;53592;51.402;6.054;2023-04-06T02:51:17;3.59;71.94
65989;HTU21D;53592;51.402;6.054;2023-04-06T02:53:43;3.54;71.91
65989;HTU21D;53592;51.402;6.054;2023-04-06T02:56:08;3.52;72.00
65989;HTU21D;53592;51.402;6.054;2023-04-06T02:58:33;3.54;71.77
65989;HTU21D;53592;51.402;6.054;2023-04-06T03:00:59;3.58;71.29
65989;HTU21D;53592;51.402;6.054;2023-04-06T03:03:24;3.62;71.08
65989;HTU21D;53592;51.402;6.054;2023-04-06T03:05:50;3.64;70.85
65989;HTU21D;53592;51.402;6.054;2023-04-06T03:08:15;3.58;70.59
65989;HTU21D;53592;51.402;6.054;2023-04-06T03:10:41;3.56;70.58
65989;HTU21D;53592;51.402;6.054;2023-04-06T03:13:06;3.49;70.59
65989;HTU21D;53592;51.402;6.054;2023-04-06T03:15:32;3.44;70.52
65989;HTU21D;53592;51.402;6.054;2023-04-06T03:17:57;3.42;71.15
65989;HTU21D;53592;51.402;6.054;2023-04-06T03:20:23;3.44;71.00
65989;HTU21D;53592;51.402;6.054;2023-04-06T03:22:48;3.54;70.84
65989;HTU21D;53592;51.402;6.054;2023-04-06T03:25:14;3.57;70.64
65989;HTU21D;53592;51.402;6.054;2023-04-06T03:27:39;3.60;70.16
65989;HTU21D;53592;51.402;6.054;2023-04-06T03:30:07;3.57;69.81
65989;HTU21D;53592;51.402;6.054;2023-04-06T03:32:33;3.55;69.62
65989;HTU21D;53592;51.402;6.054;2023-04-06T03:34:58;3.49;70.12
65989;HTU21D;53592;51.402;6.054;2023-04-06T03:37:24;3.53;70.25
65989;HTU21D;53592;51.402;6.054;2023-04-06T03:39:51;3.57;70.22
65989;HTU21D;53592;51.402;6.054;2023-04-06T03:42:17;3.61;70.08
65989;HTU21D;53592;51.402;6.054;2023-04-06T03:44:42;3.63;70.03
65989;HTU21D;53592;51.402;6.054;2023-04-06T03:47:07;3.64;70.00
65989;HTU21D;53592;51.402;6.054;2023-04-06T03:49:33;3.65;70.10
65989;HTU21D;53592;51.402;6.054;2023-04-06T03:52:00;3.67;70.13
65989;HTU21D;53592;51.402;6.054;2023-04-06T03:54:25;3.65;70.23
65989;HTU21D;53592;51.402;6.054;2023-04-06T03:56:51;3.63;70.55
65989;HTU21D;53592;51.402;6.054;2023-04-06T03:59:16;3.63;70.87
65989;HTU21D;53592;51.402;6.054;2023-04-06T04:01:42;3.62;71.22
65989;HTU21D;53592;51.402;6.054;2023-04-06T04:04:07;3.64;71.41
65989;HTU21D;53592;51.402;6.054;2023-04-06T04:06:33;3.61;71.42
65989;HTU21D;53592;51.402;6.054;2023-04-06T04:08:58;3.59;71.73
65989;HTU21D;53592;51.402;6.054;2023-04-06T04:11:23;3.58;71.78
65989;HTU21D;53592;51.402;6.054;2023-04-06T04:13:49;3.61;71.98
65989;HTU21D;53592;51.402;6.054;2023-04-06T04:16:14;3.57;72.26
65989;HTU21D;53592;51.402;6.054;2023-04-06T04:18:40;3.59;72.38
65989;HTU21D;53592;51.402;6.054;2023-04-06T04:21:05;3.61;72.21
65989;HTU21D;53592;51.402;6.054;2023-04-06T04:23:31;3.69;72.03
65989;HTU21D;53592;51.402;6.054;2023-04-06T04:25:57;3.76;71.61
65989;HTU21D;53592;51.402;6.054;2023-04-06T04:28:22;3.79;71.37
65989;HTU21D;53592;51.402;6.054;2023-04-06T04:30:48;3.86;71.06
65989;HTU21D;53592;51.402;6.054;2023-04-06T04:33:13;3.87;70.78
65989;HTU21D;53592;51.402;6.054;2023-04-06T04:35:38;3.87;70.32
65989;HTU21D;53592;51.402;6.054;2023-04-06T04:38:04;3.78;70.52
65989;HTU21D;53592;51.402;6.054;2023-04-06T04:40:30;3.79;70.81
65989;HTU21D;53592;51.402;6.054;2023-04-06T04:42:55;3.83;70.93
65989;HTU21D;53592;51.402;6.054;2023-04-06T04:45:21;3.89;70.69
65989;HTU21D;53592;51.402;6.054;2023-04-06T04:47:46;3.95;70.27
65989;HTU21D;53592;51.402;6.054;2023-04-06T04:50:12;4.04;69.84
65989;HTU21D;53592;51.402;6.054;2023-04-06T04:52:37;4.07;69.39
65989;HTU21D;53592;51.402;6.054;2023-04-06T04:55:03;4.13;69.10
65989;HTU21D;53592;51.402;6.054;2023-04-06T04:57:29;4.19;68.78
65989;HTU21D;53592;51.402;6.054;2023-04-06T04:59:54;4.22;68.78
65989;HTU21D;53592;51.402;6.054;2023-04-06T05:02:20;4.26;68.65
65989;HTU21D;53592;51.402;6.054;2023-04-06T05:04:45;4.31;68.52
65989;HTU21D;53592;51.402;6.054;2023-04-06T05:07:26;4.32;68.58
65989;HTU21D;53592;51.402;6.054;2023-04-06T05:09:52;4.39;68.65
65989;HTU21D;53592;51.402;6.054;2023-04-06T05:12:18;4.42;68.56
65989;HTU21D;53592;51.402;6.054;2023-04-06T05:14:44;4.46;68.63
65989;HTU21D;53592;51.402;6.054;2023-04-06T05:17:10;4.51;68.72
65989;HTU21D;53592;51.402;6.054;2023-04-06T05:19:36;4.54;69.16
65989;HTU21D;53592;51.402;6.054;2023-04-06T05:22:01;4.56;69.30
65989;HTU21D;53592;51.402;6.054;2023-04-06T05:24:27;4.59;69.31
65989;HTU21D;53592;51.402;6.054;2023-04-06T05:26:53;4.62;69.16
65989;HTU21D;53592;51.402;6.054;2023-04-06T05:29:18;4.65;69.33
65989;HTU21D;53592;51.402;6.054;2023-04-06T05:31:45;4.71;68.17
65989;HTU21D;53592;51.402;6.054;2023-04-06T05:34:10;4.72;67.01
65989;HTU21D;53592;51.402;6.054;2023-04-06T05:36:37;4.69;66.55
65989;HTU21D;53592;51.402;6.054;2023-04-06T05:39:03;4.68;66.95
65989;HTU21D;53592;51.402;6.054;2023-04-06T05:41:28;4.75;66.76
65989;HTU21D;53592;51.402;6.054;2023-04-06T05:43:54;4.80;66.84
65989;HTU21D;53592;51.402;6.054;2023-04-06T05:46:19;4.80;66.80
65989;HTU21D;53592;51.402;6.054;2023-04-06T05:48:45;4.90;66.65
65989;HTU21D;53592;51.402;6.054;2023-04-06T05:51:10;4.94;66.33
65989;HTU21D;53592;51.402;6.054;2023-04-06T05:53:36;5.06;65.85
65989;HTU21D;53592;51.402;6.054;2023-04-06T05:56:02;5.10;66.11
65989;HTU21D;53592;51.402;6.054;2023-04-06T05:58:28;5.20;65.90
65989;HTU21D;53592;51.402;6.054;2023-04-06T06:01:00;5.36;64.69
65989;HTU21D;53592;51.402;6.054;2023-04-06T06:03:26;5.36;64.67
65989;HTU21D;53592;51.402;6.054;2023-04-06T06:05:51;5.40;64.56
65989;HTU21D;53592;51.402;6.054;2023-04-06T06:08:17;5.43;64.24
65989;HTU21D;53592;51.402;6.054;2023-04-06T06:10:42;5.51;64.19
65989;HTU21D;53592;51.402;6.054;2023-04-06T06:13:08;5.52;64.79
65989;HTU21D;53592;51.402;6.054;2023-04-06T06:15:34;5.62;64.44
65989;HTU21D;53592;51.402;6.054;2023-04-06T06:17:59;5.72;64.12
65989;HTU21D;53592;51.402;6.054;2023-04-06T06:20:26;5.74;64.06
65989;HTU21D;53592;51.402;6.054;2023-04-06T06:22:52;5.84;64.29
65989;HTU21D;53592;51.402;6.054;2023-04-06T06:25:17;5.84;64.64
65989;HTU21D;53592;51.402;6.054;2023-04-06T06:27:43;5.98;64.77
65989;HTU21D;53592;51.402;6.054;2023-04-06T06:30:08;6.10;64.52
65989;HTU21D;53592;51.402;6.054;2023-04-06T06:32:34;6.24;63.19
65989;HTU21D;53592;51.402;6.054;2023-04-06T06:35:00;6.27;63.60
65989;HTU21D;53592;51.402;6.054;2023-04-06T06:37:25;6.39;62.67
65989;HTU21D;53592;51.402;6.054;2023-04-06T06:39:51;6.52;62.82
65989;HTU21D;53592;51.402;6.054;2023-04-06T06:42:16;6.71;61.55
65989;HTU21D;53592;51.402;6.054;2023-04-06T06:44:42;6.73;61.32
65989;HTU21D;53592;51.402;6.054;2023-04-06T06:47:07;6.83;62.05
65989;HTU21D;53592;51.402;6.054;2023-04-06T06:49:32;7.00;61.94
65989;HTU21D;53592;51.402;6.054;2023-04-06T06:51:58;7.22;60.87
65989;HTU21D;53592;51.402;6.054;2023-04-06T06:54:23;7.39;59.97
65989;HTU21D;53592;51.402;6.054;2023-04-06T06:56:49;7.58;58.39
65989;HTU21D;53592;51.402;6.054;2023-04-06T06:59:14;7.58;58.67
65989;HTU21D;53592;51.402;6.054;2023-04-06T07:01:41;7.67;59.44
65989;HTU21D;53592;51.402;6.054;2023-04-06T07:04:07;7.76;59.35
65989;HTU21D;53592;51.402;6.054;2023-04-06T07:06:35;7.90;58.83
65989;HTU21D;53592;51.402;6.054;2023-04-06T07:09:01;7.98;58.99
65989;HTU21D;53592;51.402;6.054;2023-04-06T07:11:29;8.08;59.35
65989;HTU21D;53592;51.402;6.054;2023-04-06T07:13:54;8.22;59.27
65989;HTU21D;53592;51.402;6.054;2023-04-06T07:16:20;8.30;58.80
65989;HTU21D;53592;51.402;6.054;2023-04-06T07:18:46;8.44;57.07
65989;HTU21D;53592;51.402;6.054;2023-04-06T07:21:11;8.38;56.26
65989;HTU21D;53592;51.402;6.054;2023-04-06T07:23:37;8.31;56.54
65989;HTU21D;53592;51.402;6.054;2023-04-06T07:26:02;8.37;57.58
65989;HTU21D;53592;51.402;6.054;2023-04-06T07:28:28;8.46;57.13
65989;HTU21D;53592;51.402;6.054;2023-04-06T07:30:53;8.48;57.37
65989;HTU21D;53592;51.402;6.054;2023-04-06T07:33:20;8.63;57.65
65989;HTU21D;53592;51.402;6.054;2023-04-06T07:35:45;8.78;56.42
65989;HTU21D;53592;51.402;6.054;2023-04-06T07:38:11;8.93;56.38
65989;HTU21D;53592;51.402;6.054;2023-04-06T07:40:36;9.02;55.46
65989;HTU21D;53592;51.402;6.054;2023-04-06T07:43:02;9.16;54.89
65989;HTU21D;53592;51.402;6.054;2023-04-06T07:45:29;9.24;55.24
65989;HTU21D;53592;51.402;6.054;2023-04-06T07:47:54;9.38;54.73
65989;HTU21D;53592;51.402;6.054;2023-04-06T07:50:20;9.44;54.31
65989;HTU21D;53592;51.402;6.054;2023-04-06T07:52:46;9.48;53.52
65989;HTU21D;53592;51.402;6.054;2023-04-06T07:55:12;9.41;53.89
65989;HTU21D;53592;51.402;6.054;2023-04-06T07:57:37;9.55;54.09
65989;HTU21D;53592;51.402;6.054;2023-04-06T08:00:03;9.57;54.42
65989;HTU21D;53592;51.402;6.054;2023-04-06T08:02:31;9.70;54.39
65989;HTU21D;53592;51.402;6.054;2023-04-06T08:04:56;9.77;54.23
65989;HTU21D;53592;51.402;6.054;2023-04-06T08:07:22;9.81;53.04
65989;HTU21D;53592;51.402;6.054;2023-04-06T08:09:47;9.79;53.28
65989;HTU21D;53592;51.402;6.054;2023-04-06T08:12:13;9.84;52.78
65989;HTU21D;53592;51.402;6.054;2023-04-06T08:14:39;9.80;52.36
65989;HTU21D;53592;51.402;6.054;2023-04-06T08:17:04;9.82;52.67
65989;HTU21D;53592;51.402;6.054;2023-04-06T08:19:30;9.85;53.31
65989;HTU21D;53592;51.402;6.054;2023-04-06T08:21:55;9.97;53.72
65989;HTU21D;53592;51.402;6.054;2023-04-06T08:24:21;10.14;52.82
65989;HTU21D;53592;51.402;6.054;2023-04-06T08:26:46;10.13;52.11
65989;HTU21D;53592;51.402;6.054;2023-04-06T08:29:12;10.22;51.99
65989;HTU21D;53592;51.402;6.054;2023-04-06T08:31:40;10.29;52.20
65989;HTU21D;53592;51.402;6.054;2023-04-06T08:34:08;10.40;51.96
65989;HTU21D;53592;51.402;6.054;2023-04-06T08:47:12;10.86;51.33
65989;HTU21D;53592;51.402;6.054;2023-04-06T08:49:43;11.08;51.54
65989;HTU21D;53592;51.402;6.054;2023-04-06T08:52:10;11.26;50.46
65989;HTU21D;53592;51.402;6.054;2023-04-06T08:54:57;11.37;49.85
65989;HTU21D;53592;51.402;6.054;2023-04-06T09:00:49;11.68;49.60
65989;HTU21D;53592;51.402;6.054;2023-04-06T09:13:31;11.86;48.02
65989;HTU21D;53592;51.402;6.054;2023-04-06T09:16:04;11.72;48.59
65989;HTU21D;53592;51.402;6.054;2023-04-06T09:19:03;11.66;49.30
65989;HTU21D;53592;51.402;6.054;2023-04-06T09:21:32;11.68;50.21
65989;HTU21D;53592;51.402;6.054;2023-04-06T09:34:23;12.11;49.39
65989;HTU21D;53592;51.402;6.054;2023-04-06T09:36:49;12.08;50.18
65989;HTU21D;53592;51.402;6.054;2023-04-06T09:39:34;12.10;50.14
65989;HTU21D;53592;51.402;6.054;2023-04-06T09:41:59;12.11;50.47
65989;HTU21D;53592;51.402;6.054;2023-04-06T09:47:49;12.25;49.16
65989;HTU21D;53592;51.402;6.054;2023-04-06T09:50:17;12.17;49.82
65989;HTU21D;53592;51.402;6.054;2023-04-06T09:53:19;12.18;50.65
65989;HTU21D;53592;51.402;6.054;2023-04-06T09:55:46;12.29;50.70
65989;HTU21D;53592;51.402;6.054;2023-04-06T10:08:24;12.76;50.37
65989;HTU21D;53592;51.402;6.054;2023-04-06T10:11:08;12.82;48.18
65989;HTU21D;53592;51.402;6.054;2023-04-06T10:13:55;12.79;49.09
65989;HTU21D;53592;51.402;6.054;2023-04-06T10:26:27;12.70;49.62
65989;HTU21D;53592;51.402;6.054;2023-04-06T10:35:47;12.58;50.50
65989;HTU21D;53592;51.402;6.054;2023-04-06T10:38:12;12.59;50.23
65989;HTU21D;53592;51.402;6.054;2023-04-06T10:41:10;12.62;50.10
65989;HTU21D;53592;51.402;6.054;2023-04-06T10:43:38;12.63;50.44
65989;HTU21D;53592;51.402;6.054;2023-04-06T10:49:54;12.78;51.59
65989;HTU21D;53592;51.402;6.054;2023-04-06T10:56:21;13.04;52.41
65989;HTU21D;53592;51.402;6.054;2023-04-06T11:13:36;13.45;50.30
65989;HTU21D;53592;51.402;6.054;2023-04-06T11:16:45;13.35;50.37
65989;HTU21D;53592;51.402;6.054;2023-04-06T11:19:40;13.30;50.24
65989;HTU21D;53592;51.402;6.054;2023-04-06T11:25:27;12.90;51.71
65989;HTU21D;53592;51.402;6.054;2023-04-06T11:27:53;12.86;52.12
65989;HTU21D;53592;51.402;6.054;2023-04-06T11:30:19;12.78;53.50
65989;HTU21D;53592;51.402;6.054;2023-04-06T11:32:45;12.75;54.13
65989;HTU21D;53592;51.402;6.054;2023-04-06T11:35:21;12.70;54.39
65989;HTU21D;53592;51.402;6.054;2023-04-06T11:44:45;12.32;56.64
65989;HTU21D;53592;51.402;6.054;2023-04-06T11:54:05;11.87;60.53
65989;HTU21D;53592;51.402;6.054;2023-04-06T11:57:03;11.73;61.45
65989;HTU21D;53592;51.402;6.054;2023-04-06T11:59:51;11.74;61.54
65989;HTU21D;53592;51.402;6.054;2023-04-06T12:05:40;11.53;61.98
65989;HTU21D;53592;51.402;6.054;2023-04-06T12:08:40;11.54;61.12
65989;HTU21D;53592;51.402;6.054;2023-04-06T12:11:40;11.36;61.83
65989;HTU21D;53592;51.402;6.054;2023-04-06T12:14:43;11.15;62.78
65989;HTU21D;53592;51.402;6.054;2023-04-06T12:17:09;11.03;64.04
65989;HTU21D;53592;51.402;6.054;2023-04-06T12:26:16;10.87;66.21
65989;HTU21D;53592;51.402;6.054;2023-04-06T12:28:42;10.90;66.72
65989;HTU21D;53592;51.402;6.054;2023-04-06T12:31:14;10.72;66.81
65989;HTU21D;53592;51.402;6.054;2023-04-06T12:33:40;10.68;66.73
65989;HTU21D;53592;51.402;6.054;2023-04-06T12:36:11;10.68;66.90
65989;HTU21D;53592;51.402;6.054;2023-04-06T12:38:37;10.54;67.59
65989;HTU21D;53592;51.402;6.054;2023-04-06T12:41:05;10.42;68.55
65989;HTU21D;53592;51.402;6.054;2023-04-06T12:43:30;10.41;68.68
65989;HTU21D;53592;51.402;6.054;2023-04-06T12:45:56;10.26;69.43
65989;HTU21D;53592;51.402;6.054;2023-04-06T12:48:21;10.26;70.04
65989;HTU21D;53592;51.402;6.054;2023-04-06T12:50:57;10.21;70.78
65989;HTU21D;53592;51.402;6.054;2023-04-06T12:53:23;10.20;70.68
65989;HTU21D;53592;51.402;6.054;2023-04-06T12:55:49;10.13;71.14
65989;HTU21D;53592;51.402;6.054;2023-04-06T12:58:14;10.07;71.79
65989;HTU21D;53592;51.402;6.054;2023-04-06T13:00:40;10.14;72.41
65989;HTU21D;53592;51.402;6.054;2023-04-06T13:03:06;10.27;71.77
65989;HTU21D;53592;51.402;6.054;2023-04-06T13:05:31;10.21;72.51
65989;HTU21D;53592;51.402;6.054;2023-04-06T13:07:57;10.23;73.28
65989;HTU21D;53592;51.402;6.054;2023-04-06T13:10:22;10.21;73.13
65989;HTU21D;53592;51.402;6.054;2023-04-06T13:12:48;10.26;73.46
65989;HTU21D;53592;51.402;6.054;2023-04-06T13:15:14;10.30;72.95
65989;HTU21D;53592;51.402;6.054;2023-04-06T13:17:40;10.22;73.41
65989;HTU21D;53592;51.402;6.054;2023-04-06T13:20:06;10.25;73.67
65989;HTU21D;53592;51.402;6.054;2023-04-06T13:22:32;10.26;73.70
65989;HTU21D;53592;51.402;6.054;2023-04-06T13:24:57;10.30;73.48
65989;HTU21D;53592;51.402;6.054;2023-04-06T13:27:23;10.36;73.70
65989;HTU21D;53592;51.402;6.054;2023-04-06T13:29:48;10.37;73.57
65989;HTU21D;53592;51.402;6.054;2023-04-06T13:32:14;10.37;73.63
65989;HTU21D;53592;51.402;6.054;2023-04-06T13:34:40;10.34;73.61
65989;HTU21D;53592;51.402;6.054;2023-04-06T13:37:13;10.36;73.39
65989;HTU21D;53592;51.402;6.054;2023-04-06T13:39:39;10.31;73.54
65989;HTU21D;53592;51.402;6.054;2023-04-06T13:42:05;10.24;73.83
65989;HTU21D;53592;51.402;6.054;2023-04-06T13:44:31;10.27;73.64
65989;HTU21D;53592;51.402;6.054;2023-04-06T13:46:58;10.18;74.67
65989;HTU21D;53592;51.402;6.054;2023-04-06T13:49:23;10.18;75.20
65989;HTU21D;53592;51.402;6.054;2023-04-06T13:51:49;10.27;74.12
65989;HTU21D;53592;51.402;6.054;2023-04-06T13:54:14;10.13;75.35
65989;HTU21D;53592;51.402;6.054;2023-04-06T13:56:40;10.11;75.02
65989;HTU21D;53592;51.402;6.054;2023-04-06T13:59:05;10.07;75.40
65989;HTU21D;53592;51.402;6.054;2023-04-06T14:01:31;10.10;75.67
65989;HTU21D;53592;51.402;6.054;2023-04-06T14:03:56;10.14;76.13
65989;HTU21D;53592;51.402;6.054;2023-04-06T14:06:22;10.13;76.16
65989;HTU21D;53592;51.402;6.054;2023-04-06T14:08:47;10.14;75.76
65989;HTU21D;53592;51.402;6.054;2023-04-06T14:11:14;10.08;76.28
65989;HTU21D;53592;51.402;6.054;2023-04-06T14:13:40;10.07;76.05
65989;HTU21D;53592;51.402;6.054;2023-04-06T14:16:06;10.03;76.04
65989;HTU21D;53592;51.402;6.054;2023-04-06T14:18:33;10.03;76.53
65989;HTU21D;53592;51.402;6.054;2023-04-06T14:21:00;9.99;76.91
65989;HTU21D;53592;51.402;6.054;2023-04-06T14:23:27;10.00;76.80
65989;HTU21D;53592;51.402;6.054;2023-04-06T14:26:03;9.96;77.78
65989;HTU21D;53592;51.402;6.054;2023-04-06T14:28:30;10.05;77.52
65989;HTU21D;53592;51.402;6.054;2023-04-06T14:30:56;10.06;77.17
65989;HTU21D;53592;51.402;6.054;2023-04-06T14:33:21;10.00;77.59
65989;HTU21D;53592;51.402;6.054;2023-04-06T14:35:47;9.91;78.66
65989;HTU21D;53592;51.402;6.054;2023-04-06T14:38:12;9.96;79.22
65989;HTU21D;53592;51.402;6.054;2023-04-06T14:40:38;9.97;79.81
65989;HTU21D;53592;51.402;6.054;2023-04-06T14:43:03;10.00;79.19
65989;HTU21D;53592;51.402;6.054;2023-04-06T14:45:33;10.06;78.64
65989;HTU21D;53592;51.402;6.054;2023-04-06T14:48:00;10.08;78.47
65989;HTU21D;53592;51.402;6.054;2023-04-06T14:50:26;9.98;79.16
65989;HTU21D;53592;51.402;6.054;2023-04-06T14:52:51;9.97;79.54
65989;HTU21D;53592;51.402;6.054;2023-04-06T14:55:17;10.05;79.50
65989;HTU21D;53592;51.402;6.054;2023-04-06T14:57:42;10.00;79.75
65989;HTU21D;53592;51.402;6.054;2023-04-06T15:00:08;9.89;80.28
65989;HTU21D;53592;51.402;6.054;2023-04-06T15:02:35;9.96;80.88
65989;HTU21D;53592;51.402;6.054;2023-04-06T15:05:00;9.95;80.84
65989;HTU21D;53592;51.402;6.054;2023-04-06T15:07:26;9.92;80.74
65989;HTU21D;53592;51.402;6.054;2023-04-06T15:09:51;9.84;80.99
65989;HTU21D;53592;51.402;6.054;2023-04-06T15:12:17;9.84;81.14
65989;HTU21D;53592;51.402;6.054;2023-04-06T15:14:42;9.86;81.49
65989;HTU21D;53592;51.402;6.054;2023-04-06T15:17:08;9.90;81.66
65989;HTU21D;53592;51.402;6.054;2023-04-06T15:19:33;9.90;81.12
65989;HTU21D;53592;51.402;6.054;2023-04-06T15:21:59;9.94;80.93
65989;HTU21D;53592;51.402;6.054;2023-04-06T15:24:24;9.90;81.10
65989;HTU21D;53592;51.402;6.054;2023-04-06T15:26:50;9.86;81.41
65989;HTU21D;53592;51.402;6.054;2023-04-06T15:29:16;9.89;81.06
65989;HTU21D;53592;51.402;6.054;2023-04-06T15:31:41;9.83;81.36
65989;HTU21D;53592;51.402;6.054;2023-04-06T15:34:07;9.77;81.37
65989;HTU21D;53592;51.402;6.054;2023-04-06T15:36:33;9.81;81.48
65989;HTU21D;53592;51.402;6.054;2023-04-06T15:39:00;9.77;81.81
65989;HTU21D;53592;51.402;6.054;2023-04-06T15:41:26;9.77;82.01
65989;HTU21D;53592;51.402;6.054;2023-04-06T15:43:53;9.76;82.30
65989;HTU21D;53592;51.402;6.054;2023-04-06T15:46:20;9.78;82.69
65989;HTU21D;53592;51.402;6.054;2023-04-06T15:48:46;9.71;82.75
65989;HTU21D;53592;51.402;6.054;2023-04-06T15:51:11;9.70;83.27
65989;HTU21D;53592;51.402;6.054;2023-04-06T15:53:37;9.82;82.58
65989;HTU21D;53592;51.402;6.054;2023-04-06T15:56:05;9.67;83.42
65989;HTU21D;53592;51.402;6.054;2023-04-06T15:58:34;9.60;83.63
65989;HTU21D;53592;51.402;6.054;2023-04-06T16:01:01;9.60;84.06
65989;HTU21D;53592;51.402;6.054;2023-04-06T16:03:34;9.57;84.56
65989;HTU21D;53592;51.402;6.054;2023-04-06T16:06:00;9.61;84.58
65989;HTU21D;53592;51.402;6.054;2023-04-06T16:08:25;9.59;85.13
65989;HTU21D;53592;51.402;6.054;2023-04-06T16:10:51;9.68;84.32
65989;HTU21D;53592;51.402;6.054;2023-04-06T16:13:16;9.49;84.57
65989;HTU21D;53592;51.402;6.054;2023-04-06T16:15:42;9.50;84.74
65989;HTU21D;53592;51.402;6.054;2023-04-06T16:18:07;9.45;84.55
65989;HTU21D;53592;51.402;6.054;2023-04-06T16:20:34;9.30;85.36
65989;HTU21D;53592;51.402;6.054;2023-04-06T16:23:00;9.27;85.55
65989;HTU21D;53592;51.402;6.054;2023-04-06T16:25:25;9.34;85.70
65989;HTU21D;53592;51.402;6.054;2023-04-06T16:27:51;9.29;86.06
65989;HTU21D;53592;51.402;6.054;2023-04-06T16:30:16;9.33;85.62
65989;HTU21D;53592;51.402;6.054;2023-04-06T16:32:42;9.19;86.77
65989;HTU21D;53592;51.402;6.054;2023-04-06T16:35:08;9.19;86.64
65989;HTU21D;53592;51.402;6.054;2023-04-06T16:37:34;9.18;87.13
65989;HTU21D;53592;51.402;6.054;2023-04-06T16:40:00;9.23;87.02
65989;HTU21D;53592;51.402;6.054;2023-04-06T16:42:26;9.27;86.78
65989;HTU21D;53592;51.402;6.054;2023-04-06T16:44:52;9.23;86.93
65989;HTU21D;53592;51.402;6.054;2023-04-06T16:47:17;9.29;86.74
65989;HTU21D;53592;51.402;6.054;2023-04-06T16:49:43;9.24;86.99
65989;HTU21D;53592;51.402;6.054;2023-04-06T16:52:09;9.20;87.33
65989;HTU21D;53592;51.402;6.054;2023-04-06T16:54:35;9.27;87.19
65989;HTU21D;53592;51.402;6.054;2023-04-06T16:57:01;9.22;87.55
65989;HTU21D;53592;51.402;6.054;2023-04-06T16:59:30;9.26;87.29
65989;HTU21D;53592;51.402;6.054;2023-04-06T17:01:56;9.27;87.06
65989;HTU21D;53592;51.402;6.054;2023-04-06T17:04:21;9.24;87.65
65989;HTU21D;53592;51.402;6.054;2023-04-06T17:06:47;9.25;87.38
65989;HTU21D;53592;51.402;6.054;2023-04-06T17:09:13;9.24;87.48
65989;HTU21D;53592;51.402;6.054;2023-04-06T17:11:39;9.27;87.66
65989;HTU21D;53592;51.402;6.054;2023-04-06T17:14:06;9.27;87.22
65989;HTU21D;53592;51.402;6.054;2023-04-06T17:16:32;9.27;87.56
65989;HTU21D;53592;51.402;6.054;2023-04-06T17:18:57;9.24;87.52
65989;HTU21D;53592;51.402;6.054;2023-04-06T17:21:23;9.33;87.09